sensor_id;sensor_type;location;lat;lon;timestamp;P1;durP1;ratioP1;P2;durP2;ratioP2
46889;SDS011;32625;51.080;16.970;2023-04-26T05:58:15;12.73;;;2.88;;
46889;SDS011;32625;51.080;16.970;2023-04-26T06:00:48;7.75;;;2.63;;
46889;SDS011;32625;51.080;16.970;2023-04-26T06:04:15;24.52;;;3.30;;
46889;SDS011;32625;51.080;16.970;2023-04-26T06:07:15;6.70;;;2.42;;
46889;SDS011;32625;51.080;16.970;2023-04-26T06:10:08;8.32;;;2.90;;
46889;SDS011;32625;51.080;16.970;2023-04-26T06:12:46;9.93;;;3.58;;
46889;SDS011;32625;51.080;16.970;2023-04-26T06:15:40;9.70;;;2.42;;
46889;SDS011;32625;51.080;16.970;2023-04-26T06:18:13;11.50;;;2.38;;
46889;SDS011;32625;51.080;16.970;2023-04-26T06:21:05;11.05;;;2.78;;
46889;SDS011;32625;51.080;16.970;2023-04-26T06:24:43;11.45;;;2.72;;
46889;SDS011;32625;51.080;16.970;2023-04-26T06:27:14;17.13;;;2.97;;
46889;SDS011;32625;51.080;16.970;2023-04-26T06:30:30;15.45;;;3.00;;
46889;SDS011;32625;51.080;16.970;2023-04-26T06:34:22;10.32;;;2.50;;
46889;SDS011;32625;51.080;16.970;2023-04-26T06:40:49;8.95;;;2.33;;
46889;SDS011;32625;51.080;16.970;2023-04-26T06:43:52;8.35;;;3.60;;
46889;SDS011;32625;51.080;16.970;2023-04-26T06:47:42;12.27;;;2.55;;
46889;SDS011;32625;51.080;16.970;2023-04-26T06:50:41;7.40;;;2.72;;
46889;SDS011;32625;51.080;16.970;2023-04-26T06:53:52;10.50;;;2.67;;
46889;SDS011;32625;51.080;16.970;2023-04-26T06:57:08;11.82;;;2.30;;
46889;SDS011;32625;51.080;16.970;2023-04-26T07:22:52;8.27;;;2.25;;
46889;SDS011;32625;51.080;16.970;2023-04-26T07:25:21;8.57;;;1.95;;
46889;SDS011;32625;51.080;16.970;2023-04-26T07:27:48;10.32;;;2.10;;
46889;SDS011;32625;51.080;16.970;2023-04-26T07:30:33;11.18;;;1.90;;
46889;SDS011;32625;51.080;16.970;2023-04-26T07:39:56;6.95;;;1.77;;
46889;SDS011;32625;51.080;16.970;2023-04-26T07:42:44;8.98;;;2.42;;
46889;SDS011;32625;51.080;16.970;2023-04-26T07:45:34;9.50;;;2.17;;
46889;SDS011;32625;51.080;16.970;2023-04-26T07:52:00;6.78;;;1.80;;
46889;SDS011;32625;51.080;16.970;2023-04-26T08:01:26;7.35;;;1.65;;
46889;SDS011;32625;51.080;16.970;2023-04-26T08:03:57;10.30;;;2.10;;
46889;SDS011;32625;51.080;16.970;2023-04-26T08:06:43;9.70;;;1.92;;
46889;SDS011;32625;51.080;16.970;2023-04-26T08:09:14;11.90;;;2.88;;
46889;SDS011;32625;51.080;16.970;2023-04-26T08:11:45;9.32;;;1.95;;
46889;SDS011;32625;51.080;16.970;2023-04-26T08:23:53;9.52;;;1.75;;
46889;SDS011;32625;51.080;16.970;2023-04-26T08:27:05;4.57;;;1.50;;
46889;SDS011;32625;51.080;16.970;2023-04-26T08:30:19;5.97;;;1.88;;
46889;SDS011;32625;51.080;16.970;2023-04-26T08:33:03;5.97;;;1.98;;
46889;SDS011;32625;51.080;16.970;2023-04-26T08:35:53;6.65;;;1.85;;
46889;SDS011;32625;51.080;16.970;2023-04-26T08:38:48;10.57;;;2.13;;
46889;SDS011;32625;51.080;16.970;2023-04-26T08:41:24;7.90;;;2.35;;
46889;SDS011;32625;51.080;16.970;2023-04-26T08:43:59;8.40;;;1.80;;
46889;SDS011;32625;51.080;16.970;2023-04-26T08:59:04;8.45;;;2.13;;
46889;SDS011;32625;51.080;16.970;2023-04-26T09:02:00;5.70;;;1.60;;
46889;SDS011;32625;51.080;16.970;2023-04-26T09:08:03;4.40;;;1.50;;
46889;SDS011;32625;51.080;16.970;2023-04-26T09:11:09;8.88;;;2.13;;
46889;SDS011;32625;51.080;16.970;2023-04-26T09:14:26;9.30;;;2.13;;
46889;SDS011;32625;51.080;16.970;2023-04-26T09:21:08;4.15;;;1.50;;
46889;SDS011;32625;51.080;16.970;2023-04-26T09:25:03;10.43;;;1.83;;
46889;SDS011;32625;51.080;16.970;2023-04-26T09:34:27;6.68;;;2.00;;
46889;SDS011;32625;51.080;16.970;2023-04-26T09:37:55;6.50;;;1.67;;
46889;SDS011;32625;51.080;16.970;2023-04-26T09:40:31;7.25;;;1.85;;
46889;SDS011;32625;51.080;16.970;2023-04-26T09:43:49;9.98;;;2.00;;
46889;SDS011;32625;51.080;16.970;2023-04-26T09:50:02;10.25;;;2.67;;
46889;SDS011;32625;51.080;16.970;2023-04-26T09:52:42;5.65;;;1.98;;
46889;SDS011;32625;51.080;16.970;2023-04-26T09:55:35;9.63;;;2.08;;
46889;SDS011;32625;51.080;16.970;2023-04-26T09:58:24;8.77;;;1.90;;
46889;SDS011;32625;51.080;16.970;2023-04-26T10:06:43;8.48;;;2.15;;
46889;SDS011;32625;51.080;16.970;2023-04-26T10:09:10;8.93;;;1.83;;
46889;SDS011;32625;51.080;16.970;2023-04-26T10:15:02;6.68;;;1.83;;
46889;SDS011;32625;51.080;16.970;2023-04-26T10:17:48;4.72;;;1.58;;
46889;SDS011;32625;51.080;16.970;2023-04-26T10:20:19;7.30;;;2.10;;
46889;SDS011;32625;51.080;16.970;2023-04-26T10:22:50;7.57;;;2.22;;
46889;SDS011;32625;51.080;16.970;2023-04-26T10:25:19;7.35;;;1.55;;
46889;SDS011;32625;51.080;16.970;2023-04-26T10:27:47;6.85;;;1.88;;
46889;SDS011;32625;51.080;16.970;2023-04-26T10:30:15;4.53;;;1.73;;
46889;SDS011;32625;51.080;16.970;2023-04-26T10:38:30;11.77;;;2.20;;
46889;SDS011;32625;51.080;16.970;2023-04-26T10:41:28;7.50;;;1.70;;
46889;SDS011;32625;51.080;16.970;2023-04-26T10:46:57;6.68;;;1.33;;
46889;SDS011;32625;51.080;16.970;2023-04-26T10:50:31;7.55;;;1.67;;
46889;SDS011;32625;51.080;16.970;2023-04-26T10:56:53;4.65;;;1.75;;
46889;SDS011;32625;51.080;16.970;2023-04-26T10:59:21;7.43;;;1.67;;
46889;SDS011;32625;51.080;16.970;2023-04-26T11:02:09;5.77;;;1.33;;
46889;SDS011;32625;51.080;16.970;2023-04-26T11:04:52;5.28;;;1.42;;
46889;SDS011;32625;51.080;16.970;2023-04-26T11:07:40;8.63;;;2.33;;
46889;SDS011;32625;51.080;16.970;2023-04-26T11:10:37;5.40;;;1.50;;
46889;SDS011;32625;51.080;16.970;2023-04-26T11:13:42;3.97;;;1.38;;
46889;SDS011;32625;51.080;16.970;2023-04-26T11:16:18;5.70;;;1.80;;
46889;SDS011;32625;51.080;16.970;2023-04-26T11:18:46;11.02;;;2.20;;
46889;SDS011;32625;51.080;16.970;2023-04-26T11:21:22;8.50;;;2.38;;
46889;SDS011;32625;51.080;16.970;2023-04-26T11:23:54;9.82;;;1.88;;
46889;SDS011;32625;51.080;16.970;2023-04-26T11:26:21;6.80;;;2.05;;
46889;SDS011;32625;51.080;16.970;2023-04-26T11:28:50;8.38;;;2.10;;
46889;SDS011;32625;51.080;16.970;2023-04-26T11:31:18;6.70;;;2.20;;
46889;SDS011;32625;51.080;16.970;2023-04-26T11:33:48;6.05;;;1.75;;
46889;SDS011;32625;51.080;16.970;2023-04-26T11:36:36;11.15;;;2.17;;
46889;SDS011;32625;51.080;16.970;2023-04-26T11:39:04;8.65;;;1.63;;
46889;SDS011;32625;51.080;16.970;2023-04-26T11:41:32;6.18;;;1.42;;
46889;SDS011;32625;51.080;16.970;2023-04-26T11:44:18;8.25;;;1.45;;
46889;SDS011;32625;51.080;16.970;2023-04-26T11:46:59;5.82;;;1.85;;
46889;SDS011;32625;51.080;16.970;2023-04-26T11:49:40;6.82;;;2.08;;
46889;SDS011;32625;51.080;16.970;2023-04-26T11:52:08;3.70;;;1.95;;
46889;SDS011;32625;51.080;16.970;2023-04-26T11:54:35;9.05;;;2.00;;
46889;SDS011;32625;51.080;16.970;2023-04-26T11:57:14;12.30;;;1.92;;
46889;SDS011;32625;51.080;16.970;2023-04-26T11:59:46;7.05;;;1.90;;
46889;SDS011;32625;51.080;16.970;2023-04-26T12:02:13;7.63;;;1.77;;
46889;SDS011;32625;51.080;16.970;2023-04-26T12:04:40;5.80;;;1.92;;
46889;SDS011;32625;51.080;16.970;2023-04-26T12:07:09;5.75;;;1.65;;
46889;SDS011;32625;51.080;16.970;2023-04-26T12:09:39;9.43;;;1.67;;
46889;SDS011;32625;51.080;16.970;2023-04-26T12:12:09;4.55;;;1.55;;
46889;SDS011;32625;51.080;16.970;2023-04-26T12:14:37;5.07;;;1.50;;
46889;SDS011;32625;51.080;16.970;2023-04-26T12:17:06;5.35;;;1.90;;
46889;SDS011;32625;51.080;16.970;2023-04-26T12:19:36;5.25;;;1.80;;
46889;SDS011;32625;51.080;16.970;2023-04-26T12:22:05;5.60;;;1.60;;
46889;SDS011;32625;51.080;16.970;2023-04-26T12:24:34;5.63;;;1.88;;
46889;SDS011;32625;51.080;16.970;2023-04-26T12:29:45;4.05;;;1.58;;
46889;SDS011;32625;51.080;16.970;2023-04-26T12:32:12;14.57;;;1.80;;
46889;SDS011;32625;51.080;16.970;2023-04-26T12:34:42;11.23;;;2.30;;
46889;SDS011;32625;51.080;16.970;2023-04-26T12:37:10;5.57;;;1.45;;
46889;SDS011;32625;51.080;16.970;2023-04-26T12:39:39;5.22;;;1.50;;
46889;SDS011;32625;51.080;16.970;2023-04-26T12:42:06;5.28;;;1.45;;
46889;SDS011;32625;51.080;16.970;2023-04-26T12:44:34;4.13;;;2.25;;
46889;SDS011;32625;51.080;16.970;2023-04-26T12:47:02;5.38;;;1.60;;
46889;SDS011;32625;51.080;16.970;2023-04-26T12:49:29;4.47;;;1.58;;
46889;SDS011;32625;51.080;16.970;2023-04-26T12:51:56;4.65;;;1.60;;
46889;SDS011;32625;51.080;16.970;2023-04-26T12:54:23;8.10;;;1.90;;
46889;SDS011;32625;51.080;16.970;2023-04-26T12:56:50;8.25;;;1.88;;
46889;SDS011;32625;51.080;16.970;2023-04-26T12:59:17;4.28;;;1.30;;
46889;SDS011;32625;51.080;16.970;2023-04-26T13:01:45;6.40;;;1.35;;
46889;SDS011;32625;51.080;16.970;2023-04-26T13:04:13;2.65;;;1.30;;
46889;SDS011;32625;51.080;16.970;2023-04-26T13:06:40;5.50;;;1.50;;
46889;SDS011;32625;51.080;16.970;2023-04-26T13:09:07;4.53;;;1.30;;
46889;SDS011;32625;51.080;16.970;2023-04-26T13:11:38;5.35;;;1.67;;
46889;SDS011;32625;51.080;16.970;2023-04-26T13:14:06;7.18;;;1.27;;
46889;SDS011;32625;51.080;16.970;2023-04-26T13:16:33;5.10;;;1.65;;
46889;SDS011;32625;51.080;16.970;2023-04-26T13:19:01;8.27;;;1.75;;
46889;SDS011;32625;51.080;16.970;2023-04-26T13:21:28;6.13;;;2.00;;
46889;SDS011;32625;51.080;16.970;2023-04-26T13:23:55;4.65;;;1.42;;
46889;SDS011;32625;51.080;16.970;2023-04-26T13:26:22;9.80;;;1.60;;
46889;SDS011;32625;51.080;16.970;2023-04-26T13:28:53;5.95;;;1.63;;
46889;SDS011;32625;51.080;16.970;2023-04-26T13:31:20;4.43;;;1.50;;
46889;SDS011;32625;51.080;16.970;2023-04-26T13:33:48;9.55;;;1.65;;
46889;SDS011;32625;51.080;16.970;2023-04-26T13:36:15;7.53;;;2.00;;
46889;SDS011;32625;51.080;16.970;2023-04-26T13:38:43;3.70;;;1.50;;
46889;SDS011;32625;51.080;16.970;2023-04-26T13:41:10;5.15;;;1.60;;
46889;SDS011;32625;51.080;16.970;2023-04-26T13:43:37;5.28;;;1.83;;
46889;SDS011;32625;51.080;16.970;2023-04-26T13:46:04;2.92;;;1.35;;
46889;SDS011;32625;51.080;16.970;2023-04-26T13:48:32;3.92;;;1.40;;
46889;SDS011;32625;51.080;16.970;2023-04-26T13:50:59;2.97;;;1.25;;
46889;SDS011;32625;51.080;16.970;2023-04-26T13:53:26;7.80;;;1.77;;
46889;SDS011;32625;51.080;16.970;2023-04-26T13:55:53;3.85;;;1.60;;
46889;SDS011;32625;51.080;16.970;2023-04-26T13:58:20;7.03;;;1.70;;
46889;SDS011;32625;51.080;16.970;2023-04-26T14:00:47;3.20;;;1.42;;
46889;SDS011;32625;51.080;16.970;2023-04-26T14:03:15;3.33;;;1.55;;
46889;SDS011;32625;51.080;16.970;2023-04-26T14:05:42;5.57;;;1.92;;
46889;SDS011;32625;51.080;16.970;2023-04-26T14:08:09;6.13;;;1.77;;
46889;SDS011;32625;51.080;16.970;2023-04-26T14:10:38;4.15;;;2.30;;
46889;SDS011;32625;51.080;16.970;2023-04-26T14:13:05;2.50;;;1.67;;
46889;SDS011;32625;51.080;16.970;2023-04-26T14:15:32;3.60;;;2.25;;
46889;SDS011;32625;51.080;16.970;2023-04-26T14:17:59;3.10;;;1.95;;
46889;SDS011;32625;51.080;16.970;2023-04-26T14:28:51;5.28;;;1.80;;
46889;SDS011;32625;51.080;16.970;2023-04-26T14:31:18;5.95;;;1.95;;
46889;SDS011;32625;51.080;16.970;2023-04-26T14:33:46;4.55;;;2.00;;
46889;SDS011;32625;51.080;16.970;2023-04-26T14:36:13;6.97;;;2.40;;
46889;SDS011;32625;51.080;16.970;2023-04-26T14:38:41;9.07;;;2.17;;
46889;SDS011;32625;51.080;16.970;2023-04-26T14:41:12;5.05;;;1.50;;
46889;SDS011;32625;51.080;16.970;2023-04-26T14:43:42;4.07;;;1.77;;
46889;SDS011;32625;51.080;16.970;2023-04-26T14:46:11;4.95;;;1.67;;
46889;SDS011;32625;51.080;16.970;2023-04-26T14:48:39;2.88;;;1.73;;
46889;SDS011;32625;51.080;16.970;2023-04-26T14:51:09;2.78;;;1.52;;
46889;SDS011;32625;51.080;16.970;2023-04-26T14:53:36;3.22;;;1.48;;
46889;SDS011;32625;51.080;16.970;2023-04-26T14:56:04;2.90;;;1.70;;
46889;SDS011;32625;51.080;16.970;2023-04-26T14:58:33;3.17;;;1.65;;
46889;SDS011;32625;51.080;16.970;2023-04-26T15:01:00;2.70;;;1.50;;
46889;SDS011;32625;51.080;16.970;2023-04-26T15:03:28;6.50;;;1.73;;
46889;SDS011;32625;51.080;16.970;2023-04-26T15:05:55;4.15;;;1.77;;
46889;SDS011;32625;51.080;16.970;2023-04-26T15:08:22;6.43;;;1.90;;
46889;SDS011;32625;51.080;16.970;2023-04-26T15:10:49;3.80;;;1.65;;
46889;SDS011;32625;51.080;16.970;2023-04-26T15:13:17;5.38;;;1.55;;
46889;SDS011;32625;51.080;16.970;2023-04-26T15:15:44;6.40;;;2.33;;
46889;SDS011;32625;51.080;16.970;2023-04-26T15:18:11;5.45;;;1.80;;
46889;SDS011;32625;51.080;16.970;2023-04-26T15:20:39;6.32;;;1.50;;
46889;SDS011;32625;51.080;16.970;2023-04-26T15:23:06;4.97;;;1.67;;
46889;SDS011;32625;51.080;16.970;2023-04-26T15:25:34;3.60;;;1.48;;
46889;SDS011;32625;51.080;16.970;2023-04-26T15:28:04;3.90;;;1.50;;
46889;SDS011;32625;51.080;16.970;2023-04-26T15:30:31;4.13;;;1.67;;
46889;SDS011;32625;51.080;16.970;2023-04-26T15:32:58;3.20;;;1.45;;
46889;SDS011;32625;51.080;16.970;2023-04-26T15:35:26;5.10;;;1.70;;
46889;SDS011;32625;51.080;16.970;2023-04-26T15:37:53;5.50;;;1.90;;
46889;SDS011;32625;51.080;16.970;2023-04-26T15:40:21;4.40;;;2.13;;
46889;SDS011;32625;51.080;16.970;2023-04-26T15:42:48;6.70;;;1.73;;
46889;SDS011;32625;51.080;16.970;2023-04-26T15:45:18;5.20;;;1.70;;
46889;SDS011;32625;51.080;16.970;2023-04-26T15:47:46;5.80;;;2.35;;
46889;SDS011;32625;51.080;16.970;2023-04-26T15:50:13;4.10;;;1.77;;
46889;SDS011;32625;51.080;16.970;2023-04-26T15:52:44;4.72;;;1.45;;
46889;SDS011;32625;51.080;16.970;2023-04-26T15:55:11;2.72;;;1.50;;
46889;SDS011;32625;51.080;16.970;2023-04-26T15:57:40;6.53;;;2.00;;
46889;SDS011;32625;51.080;16.970;2023-04-26T16:00:07;9.25;;;2.10;;
46889;SDS011;32625;51.080;16.970;2023-04-26T16:02:35;6.75;;;1.75;;
46889;SDS011;32625;51.080;16.970;2023-04-26T16:05:03;4.45;;;1.55;;
46889;SDS011;32625;51.080;16.970;2023-04-26T16:07:30;7.72;;;2.47;;
46889;SDS011;32625;51.080;16.970;2023-04-26T16:09:57;7.30;;;2.08;;
46889;SDS011;32625;51.080;16.970;2023-04-26T16:12:25;5.88;;;2.28;;
46889;SDS011;32625;51.080;16.970;2023-04-26T16:14:52;5.15;;;2.17;;
46889;SDS011;32625;51.080;16.970;2023-04-26T16:17:19;4.95;;;1.83;;
46889;SDS011;32625;51.080;16.970;2023-04-26T16:22:53;5.07;;;2.28;;
46889;SDS011;32625;51.080;16.970;2023-04-26T16:25:20;11.82;;;3.28;;
46889;SDS011;32625;51.080;16.970;2023-04-26T16:27:47;6.72;;;4.45;;
46889;SDS011;32625;51.080;16.970;2023-04-26T16:30:15;13.23;;;7.22;;
46889;SDS011;32625;51.080;16.970;2023-04-26T16:32:42;11.23;;;5.72;;
46889;SDS011;32625;51.080;16.970;2023-04-26T16:35:10;6.30;;;3.00;;
46889;SDS011;32625;51.080;16.970;2023-04-26T16:37:37;3.97;;;2.00;;
46889;SDS011;32625;51.080;16.970;2023-04-26T16:40:06;5.40;;;1.80;;
46889;SDS011;32625;51.080;16.970;2023-04-26T16:42:36;4.78;;;1.95;;
46889;SDS011;32625;51.080;16.970;2023-04-26T16:45:06;6.38;;;1.73;;
46889;SDS011;32625;51.080;16.970;2023-04-26T16:47:42;2.58;;;1.70;;
46889;SDS011;32625;51.080;16.970;2023-04-26T16:50:09;6.28;;;1.88;;
46889;SDS011;32625;51.080;16.970;2023-04-26T16:52:39;5.72;;;2.40;;
46889;SDS011;32625;51.080;16.970;2023-04-26T16:55:07;4.65;;;1.75;;
46889;SDS011;32625;51.080;16.970;2023-04-26T16:57:34;6.38;;;2.83;;
46889;SDS011;32625;51.080;16.970;2023-04-26T17:00:01;4.85;;;2.20;;
46889;SDS011;32625;51.080;16.970;2023-04-26T17:02:32;4.60;;;1.98;;
46889;SDS011;32625;51.080;16.970;2023-04-26T17:05:01;6.05;;;2.00;;
46889;SDS011;32625;51.080;16.970;2023-04-26T17:07:29;5.45;;;2.03;;
46889;SDS011;32625;51.080;16.970;2023-04-26T17:09:56;6.45;;;1.92;;
46889;SDS011;32625;51.080;16.970;2023-04-26T17:12:23;14.43;;;6.10;;
46889;SDS011;32625;51.080;16.970;2023-04-26T17:14:50;5.57;;;2.17;;
46889;SDS011;32625;51.080;16.970;2023-04-26T17:17:18;4.82;;;2.35;;
46889;SDS011;32625;51.080;16.970;2023-04-26T17:19:45;7.53;;;2.30;;
46889;SDS011;32625;51.080;16.970;2023-04-26T17:22:16;3.88;;;2.15;;
46889;SDS011;32625;51.080;16.970;2023-04-26T17:24:48;6.32;;;3.20;;
46889;SDS011;32625;51.080;16.970;2023-04-26T17:30:58;6.65;;;2.33;;
46889;SDS011;32625;51.080;16.970;2023-04-26T17:33:26;5.38;;;2.25;;
46889;SDS011;32625;51.080;16.970;2023-04-26T17:35:53;4.88;;;2.15;;
46889;SDS011;32625;51.080;16.970;2023-04-26T17:38:21;5.35;;;2.20;;
46889;SDS011;32625;51.080;16.970;2023-04-26T17:40:53;3.88;;;2.22;;
46889;SDS011;32625;51.080;16.970;2023-04-26T17:43:21;10.50;;;4.03;;
46889;SDS011;32625;51.080;16.970;2023-04-26T17:45:48;12.20;;;4.57;;
46889;SDS011;32625;51.080;16.970;2023-04-26T17:48:16;6.40;;;3.22;;
46889;SDS011;32625;51.080;16.970;2023-04-26T17:50:44;9.02;;;4.38;;
46889;SDS011;32625;51.080;16.970;2023-04-26T17:53:11;8.70;;;3.80;;
46889;SDS011;32625;51.080;16.970;2023-04-26T18:00:16;6.38;;;3.13;;
46889;SDS011;32625;51.080;16.970;2023-04-26T18:03:09;6.78;;;4.03;;
46889;SDS011;32625;51.080;16.970;2023-04-26T18:06:00;7.10;;;3.72;;
46889;SDS011;32625;51.080;16.970;2023-04-26T18:08:28;10.73;;;3.78;;
46889;SDS011;32625;51.080;16.970;2023-04-26T18:10:56;10.05;;;3.25;;
46889;SDS011;32625;51.080;16.970;2023-04-26T18:14:23;10.27;;;4.07;;
46889;SDS011;32625;51.080;16.970;2023-04-26T18:47:04;10.40;;;6.13;;
46889;SDS011;32625;51.080;16.970;2023-04-26T18:50:28;7.60;;;3.97;;
